createdAt,value
2022-08-23T00:01:23.973Z,23.00
2022-08-23T00:03:27.137Z,23.00
2022-08-23T00:05:31.256Z,23.00
2022-08-23T00:07:38.079Z,22.90
2022-08-23T00:09:41.897Z,22.80
2022-08-23T00:11:47.102Z,22.80
2022-08-23T00:13:51.296Z,22.90
2022-08-23T00:15:54.218Z,22.90
2022-08-23T00:17:56.955Z,22.90
2022-08-23T00:19:59.713Z,22.80
2022-08-23T00:22:02.841Z,22.70
2022-08-23T00:24:07.069Z,22.60
2022-08-23T00:26:09.890Z,22.60
2022-08-23T00:28:14.710Z,22.60
2022-08-23T00:30:19.591Z,22.50
2022-08-23T00:32:24.845Z,22.50
2022-08-23T00:34:29.026Z,22.40
2022-08-23T00:36:31.798Z,22.40
2022-08-23T00:38:35.220Z,22.40
2022-08-23T00:40:38.128Z,22.50
2022-08-23T00:43:02.765Z,22.50
2022-08-23T00:45:27.641Z,22.50
2022-08-23T00:47:40.713Z,22.60
2022-08-23T00:49:48.353Z,22.50
2022-08-23T00:51:57.439Z,22.50
2022-08-23T00:54:01.683Z,22.50
2022-08-23T00:56:08.988Z,22.50
2022-08-23T00:58:13.669Z,22.50
2022-08-23T01:00:18.179Z,22.50
2022-08-23T01:02:21.064Z,22.60
2022-08-23T01:04:27.520Z,22.60
2022-08-23T01:06:37.594Z,22.60
2022-08-23T01:08:45.589Z,22.60
2022-08-23T01:10:54.679Z,22.60
2022-08-23T01:13:03.171Z,22.60
2022-08-23T01:15:12.017Z,22.60
2022-08-23T01:17:17.792Z,22.60
2022-08-23T01:19:27.955Z,22.60
2022-08-23T01:21:41.607Z,22.60
2022-08-23T01:23:49.902Z,22.50
2022-08-23T01:25:52.957Z,22.50
2022-08-23T01:27:57.598Z,22.50
2022-08-23T01:30:00.464Z,22.50
2022-08-23T01:32:03.359Z,22.50
2022-08-23T01:34:10.122Z,22.60
2022-08-23T01:36:15.513Z,22.60
2022-08-23T01:38:18.375Z,22.60
2022-08-23T01:40:22.675Z,22.70
2022-08-23T01:42:25.471Z,22.60
2022-08-23T01:44:28.267Z,22.70
2022-08-23T01:46:32.155Z,22.70
2022-08-23T01:48:35.419Z,22.70
2022-08-23T01:50:38.618Z,22.70
2022-08-23T01:52:47.050Z,22.80
2022-08-23T01:54:50.083Z,22.70
2022-08-23T01:56:54.375Z,22.70
2022-08-23T01:58:57.227Z,22.70
2022-08-23T02:01:04.669Z,22.60
2022-08-23T02:03:10.099Z,22.70
2022-08-23T02:05:13.758Z,22.70
2022-08-23T02:07:21.829Z,22.70
2022-08-23T02:09:25.756Z,22.60
2022-08-23T02:11:29.963Z,22.60
2022-08-23T02:13:34.061Z,22.60
2022-08-23T02:15:39.907Z,22.50
2022-08-23T02:17:44.087Z,22.40
2022-08-23T02:19:46.969Z,22.40
2022-08-23T02:21:50.265Z,22.40
2022-08-23T02:23:53.205Z,22.40
2022-08-23T02:25:56.723Z,22.50
2022-08-23T02:27:59.481Z,22.50
2022-08-23T02:30:04.984Z,22.50
2022-08-23T02:32:09.712Z,22.50
2022-08-23T02:36:34.810Z,22.50
2022-08-23T02:38:37.649Z,22.40
2022-08-23T02:40:42.302Z,22.40
2022-08-23T02:42:45.068Z,22.50
2022-08-23T02:44:48.362Z,22.50
2022-08-23T02:46:52.533Z,22.50
2022-08-23T02:48:55.766Z,22.50
2022-08-23T02:51:00.804Z,22.50
2022-08-23T02:53:04.301Z,22.50
2022-08-23T02:55:08.374Z,22.40
2022-08-23T02:57:11.145Z,22.40
2022-08-23T02:59:14.851Z,22.40
2022-08-23T03:01:18.712Z,22.40
2022-08-23T03:03:22.955Z,22.30
2022-08-23T03:05:25.861Z,22.30
2022-08-23T03:07:28.790Z,22.20
2022-08-23T03:09:31.701Z,22.20
2022-08-23T03:11:34.813Z,22.20
2022-08-23T03:13:37.604Z,22.10
2022-08-23T03:15:41.219Z,22.10
2022-08-23T03:17:44.322Z,22.00
2022-08-23T03:19:48.872Z,22.00
2022-08-23T03:21:52.001Z,22.00
2022-08-23T03:23:56.718Z,22.00
2022-08-23T03:26:00.314Z,21.90
2022-08-23T03:28:05.607Z,21.80
2022-08-23T03:30:11.758Z,21.70
2022-08-23T03:32:22.079Z,21.70
2022-08-23T03:34:27.837Z,21.60
2022-08-23T03:36:31.899Z,21.60
2022-08-23T03:38:35.724Z,21.60
2022-08-23T03:40:38.520Z,21.50
2022-08-23T03:42:41.378Z,21.50
2022-08-23T03:44:44.145Z,21.40
2022-08-23T03:46:47.024Z,21.40
2022-08-23T03:48:51.754Z,21.30
2022-08-23T03:50:54.949Z,21.30
2022-08-23T03:52:59.144Z,21.20
2022-08-23T03:55:01.944Z,21.10
2022-08-23T03:57:09.349Z,21.10
2022-08-23T03:59:12.430Z,21.10
2022-08-23T04:01:15.346Z,21.00
2022-08-23T04:03:18.197Z,20.90
2022-08-23T04:05:21.001Z,21.00
2022-08-23T04:07:24.065Z,20.90
2022-08-23T04:09:28.851Z,20.90
2022-08-23T04:11:31.743Z,20.80
2022-08-23T04:13:34.664Z,20.70
2022-08-23T04:15:38.855Z,20.70
2022-08-23T04:17:43.557Z,20.70
2022-08-23T04:19:46.277Z,20.70
2022-08-23T04:21:52.195Z,20.60
2022-08-23T04:23:54.935Z,20.70
2022-08-23T04:25:59.218Z,20.60
2022-08-23T04:28:05.517Z,20.60
2022-08-23T04:30:09.226Z,20.50
2022-08-23T04:32:26.436Z,20.50
2022-08-23T04:34:33.790Z,20.50
2022-08-23T04:36:40.160Z,20.50
2022-08-23T04:38:47.632Z,20.50
2022-08-23T04:41:11.569Z,20.60
2022-08-23T04:43:15.838Z,20.60
2022-08-23T04:45:18.854Z,20.50
2022-08-23T04:47:21.670Z,20.50
2022-08-23T04:49:24.548Z,20.50
2022-08-23T04:51:27.756Z,20.50
2022-08-23T04:53:30.861Z,20.50
2022-08-23T04:55:36.300Z,20.40
2022-08-23T04:57:42.364Z,20.40
2022-08-23T04:59:46.440Z,20.40
2022-08-23T05:01:49.650Z,20.40
2022-08-23T05:03:52.411Z,20.40
2022-08-23T05:05:55.440Z,20.50
2022-08-23T05:07:58.294Z,20.60
2022-08-23T05:10:00.999Z,20.70
2022-08-23T05:12:05.081Z,20.80
2022-08-23T05:14:07.873Z,20.80
2022-08-23T05:16:12.320Z,20.80
2022-08-23T05:18:15.109Z,20.90
2022-08-23T05:20:17.894Z,21.00
2022-08-23T05:22:20.707Z,21.00
2022-08-23T05:24:23.462Z,21.00
2022-08-23T05:26:26.313Z,21.10
2022-08-23T05:28:30.588Z,21.10
2022-08-23T05:30:33.422Z,21.20
2022-08-23T05:32:39.374Z,21.20
2022-08-23T05:34:42.828Z,21.30
2022-08-23T05:36:48.291Z,21.40
2022-08-23T05:38:58.545Z,21.40
2022-08-23T05:41:02.115Z,21.40
2022-08-23T05:43:08.283Z,21.50
2022-08-23T05:45:11.510Z,21.50
2022-08-23T05:47:17.440Z,21.60
2022-08-23T05:49:29.156Z,21.60
2022-08-23T05:51:36.476Z,21.70
2022-08-23T05:53:40.190Z,21.80
2022-08-23T05:55:42.917Z,21.90
2022-08-23T05:57:45.845Z,21.90
2022-08-23T05:59:48.973Z,22.00
2022-08-23T06:01:51.845Z,22.10
2022-08-23T06:03:54.644Z,22.10
2022-08-23T06:06:00.070Z,22.20
2022-08-23T06:08:03.142Z,22.20
2022-08-23T06:10:07.149Z,22.30
2022-08-23T06:12:09.928Z,22.40
2022-08-23T06:14:15.412Z,22.40
2022-08-23T06:16:20.305Z,22.40
2022-08-23T06:18:23.117Z,22.50
2022-08-23T06:20:25.959Z,22.50
2022-08-23T06:22:31.059Z,22.50
2022-08-23T06:24:34.287Z,22.60
2022-08-23T06:26:39.176Z,22.70
2022-08-23T06:28:51.087Z,22.70
2022-08-23T06:30:58.265Z,22.80
2022-08-23T06:33:01.159Z,22.80
2022-08-23T06:35:24.367Z,22.90
2022-08-23T06:37:26.823Z,22.90
2022-08-23T06:39:36.770Z,23.00
2022-08-23T06:41:40.163Z,23.10
2022-08-23T06:43:43.133Z,23.20
2022-08-23T06:45:50.186Z,23.10
2022-08-23T06:47:58.050Z,23.10
2022-08-23T06:50:00.954Z,23.10
2022-08-23T06:52:05.495Z,23.20
2022-08-23T06:54:11.358Z,23.20
2022-08-23T06:56:16.193Z,23.30
2022-08-23T06:58:19.431Z,23.40
2022-08-23T07:00:22.723Z,23.50
2022-08-23T07:02:26.253Z,23.50
2022-08-23T07:04:31.059Z,23.70
2022-08-23T07:06:34.341Z,23.70
2022-08-23T07:08:37.238Z,23.80
2022-08-23T07:10:40.065Z,23.80
2022-08-23T07:12:50.626Z,23.80
2022-08-23T07:14:53.376Z,23.90
2022-08-23T07:16:59.419Z,23.90
2022-08-23T07:19:02.472Z,24.00
2022-08-23T07:21:07.046Z,24.00
2022-08-23T07:23:10.228Z,24.10
2022-08-23T07:25:17.218Z,24.10
2022-08-23T07:27:21.151Z,24.10
2022-08-23T07:29:25.307Z,24.10
2022-08-23T07:31:30.506Z,24.30
2022-08-23T07:33:33.538Z,24.30
2022-08-23T07:35:48.097Z,24.40
2022-08-23T07:37:50.869Z,24.40
2022-08-23T07:39:56.316Z,24.50
2022-08-23T07:42:01.615Z,24.60
2022-08-23T07:44:27.201Z,24.70
2022-08-23T07:46:31.444Z,24.70
2022-08-23T07:48:52.975Z,24.70
2022-08-23T07:51:01.214Z,24.80
2022-08-23T07:53:05.008Z,24.90
2022-08-23T07:55:08.739Z,25.10
2022-08-23T07:57:11.441Z,25.00
2022-08-23T07:59:14.503Z,25.10
2022-08-23T08:01:22.137Z,25.20
2022-08-23T08:03:25.088Z,25.20
2022-08-23T08:05:27.916Z,25.30
2022-08-23T08:07:31.466Z,25.40
2022-08-23T08:09:40.878Z,25.50
2022-08-23T08:11:47.671Z,25.40
2022-08-23T08:13:52.104Z,25.60
2022-08-23T08:15:55.107Z,25.70
2022-08-23T08:17:59.438Z,25.80
2022-08-23T08:20:02.288Z,25.80
2022-08-23T08:22:05.085Z,25.90
2022-08-23T08:24:09.828Z,25.80
2022-08-23T08:26:12.761Z,25.80
2022-08-23T08:28:16.180Z,26.00
2022-08-23T08:30:19.153Z,26.10
2022-08-23T08:32:22.127Z,26.30
2022-08-23T08:34:26.543Z,26.30
2022-08-23T08:36:36.128Z,26.30
2022-08-23T08:38:50.315Z,26.50
2022-08-23T08:41:02.826Z,26.50
2022-08-23T08:43:19.937Z,26.60
2022-08-23T08:45:26.409Z,26.70
2022-08-23T08:47:34.951Z,26.70
2022-08-23T08:49:43.901Z,26.60
2022-08-23T08:51:52.063Z,26.70
2022-08-23T08:53:56.713Z,26.80
2022-08-23T08:56:04.265Z,26.80
2022-08-23T08:58:14.388Z,26.90
2022-08-23T09:00:20.817Z,26.90
2022-08-23T09:02:32.301Z,26.90
2022-08-23T09:04:37.257Z,27.00
2022-08-23T09:06:55.198Z,27.10
2022-08-23T09:09:13.191Z,27.10
2022-08-23T09:11:30.414Z,27.30
2022-08-23T09:14:11.032Z,27.30
2022-08-23T09:16:24.660Z,27.40
2022-08-23T09:18:27.865Z,27.40
2022-08-23T09:20:33.353Z,27.30
2022-08-23T09:22:45.831Z,27.40
2022-08-23T09:24:48.546Z,27.40
2022-08-23T09:26:51.975Z,27.50
2022-08-23T09:28:59.732Z,27.50
2022-08-23T09:31:04.424Z,27.60
2022-08-23T09:33:17.463Z,27.60
2022-08-23T09:35:22.516Z,27.60
2022-08-23T09:37:27.163Z,27.60
2022-08-23T09:39:33.774Z,27.70
2022-08-23T09:41:38.871Z,27.80
2022-08-23T09:43:48.187Z,27.80
2022-08-23T09:46:01.263Z,27.90
2022-08-23T09:48:04.954Z,27.80
2022-08-23T09:50:26.103Z,27.90
2022-08-23T09:52:36.125Z,28.00
2022-08-23T09:54:46.928Z,28.00
2022-08-23T09:56:53.494Z,28.00
2022-08-23T09:58:56.778Z,28.10
2022-08-23T10:01:11.902Z,28.00
2022-08-23T10:03:25.056Z,27.90
2022-08-23T10:05:37.992Z,28.10
2022-08-23T10:07:43.146Z,28.10
2022-08-23T10:09:47.221Z,28.20
2022-08-23T10:11:50.341Z,28.20
2022-08-23T10:13:53.408Z,28.30
2022-08-23T10:16:04.291Z,28.30
2022-08-23T10:18:14.432Z,28.40
2022-08-23T10:20:29.943Z,28.60
2022-08-23T10:22:44.389Z,28.50
2022-08-23T10:24:54.928Z,28.40
2022-08-23T10:27:29.212Z,28.40
2022-08-23T10:29:38.064Z,28.40
2022-08-23T10:31:48.831Z,28.40
2022-08-23T10:34:04.508Z,28.40
2022-08-23T10:36:13.411Z,28.70
2022-08-23T10:38:37.629Z,28.80
2022-08-23T10:40:45.705Z,29.00
2022-08-23T10:42:59.007Z,29.00
2022-08-23T10:45:06.613Z,29.00
2022-08-23T10:47:19.479Z,29.00
2022-08-23T10:49:23.121Z,29.00
2022-08-23T10:51:31.467Z,29.00
2022-08-23T10:53:46.109Z,29.10
2022-08-23T10:56:03.883Z,29.20
2022-08-23T10:58:12.433Z,29.20
2022-08-23T11:00:19.223Z,29.30
2022-08-23T11:02:36.448Z,29.40
2022-08-23T11:04:49.373Z,29.40
2022-08-23T11:06:54.481Z,29.30
2022-08-23T11:09:03.288Z,29.40
2022-08-23T11:11:37.553Z,29.20
2022-08-23T11:13:40.341Z,29.20
2022-08-23T11:15:47.467Z,29.30
2022-08-23T11:18:00.687Z,29.40
2022-08-23T11:20:08.135Z,29.50
2022-08-23T11:22:16.550Z,29.60
2022-08-23T11:24:59.947Z,29.70
2022-08-23T11:27:07.701Z,29.80
2022-08-23T11:29:30.963Z,29.90
2022-08-23T11:31:37.521Z,29.90
2022-08-23T11:33:46.499Z,29.90
2022-08-23T11:35:51.653Z,29.90
2022-08-23T11:38:05.006Z,30.00
2022-08-23T11:40:17.561Z,30.10
2022-08-23T11:42:22.302Z,30.20
2022-08-23T11:44:28.880Z,30.20
2022-08-23T11:46:35.792Z,30.10
2022-08-23T11:48:43.549Z,30.10
2022-08-23T11:51:25.375Z,30.10
2022-08-23T11:53:42.708Z,30.20
2022-08-23T11:56:12.423Z,30.10
2022-08-23T11:58:24.131Z,30.20
2022-08-23T12:00:53.632Z,30.20
2022-08-23T12:03:02.888Z,30.10
2022-08-23T12:05:21.325Z,30.20
2022-08-23T12:07:44.766Z,30.20
2022-08-23T12:09:56.912Z,30.30
2022-08-23T12:12:15.174Z,30.30
2022-08-23T12:14:37.732Z,30.50
2022-08-23T12:16:49.654Z,30.50
2022-08-23T12:18:57.237Z,30.50
2022-08-23T12:21:02.780Z,30.50
2022-08-23T12:23:19.501Z,30.40
2022-08-23T12:25:23.614Z,30.40
2022-08-23T12:27:32.398Z,30.40
2022-08-23T12:29:47.169Z,30.60
2022-08-23T12:31:58.405Z,30.70
2022-08-23T12:34:16.582Z,30.70
2022-08-23T12:36:28.493Z,30.80
2022-08-23T12:38:42.562Z,30.90
2022-08-23T12:40:48.021Z,31.00
2022-08-23T12:42:51.461Z,31.00
2022-08-23T12:45:05.471Z,31.00
2022-08-23T12:47:15.434Z,31.00
2022-08-23T12:49:29.947Z,31.10
2022-08-23T12:51:32.943Z,31.10
2022-08-23T12:53:44.009Z,31.20
2022-08-23T12:55:51.961Z,31.30
2022-08-23T12:57:58.234Z,31.40
2022-08-23T13:00:20.486Z,31.20
2022-08-23T13:02:26.955Z,31.30
2022-08-23T13:04:30.628Z,31.30
2022-08-23T13:06:40.111Z,31.50
2022-08-23T13:08:52.445Z,31.60
2022-08-23T13:10:56.840Z,31.60
2022-08-23T13:13:00.730Z,31.70
2022-08-23T13:15:06.035Z,31.60
2022-08-23T13:17:19.186Z,31.60
2022-08-23T13:19:26.897Z,31.70
2022-08-23T13:21:32.005Z,31.60
2022-08-23T13:23:42.513Z,31.60
2022-08-23T13:25:45.329Z,31.60
2022-08-23T13:27:53.567Z,31.50
2022-08-23T13:29:59.309Z,31.60
2022-08-23T13:32:06.811Z,31.70
2022-08-23T13:34:09.632Z,31.80
2022-08-23T13:36:17.245Z,31.90
2022-08-23T13:38:24.593Z,31.90
2022-08-23T13:40:33.276Z,31.90
2022-08-23T13:42:38.387Z,31.70
2022-08-23T13:44:43.090Z,31.90
2022-08-23T13:46:48.228Z,31.90
2022-08-23T13:48:59.055Z,32.00
2022-08-23T13:51:24.908Z,32.00
2022-08-23T13:53:29.315Z,32.10
2022-08-23T13:55:32.935Z,32.20
2022-08-23T13:57:38.336Z,32.30
2022-08-23T13:59:47.234Z,32.40
2022-08-23T14:01:50.108Z,32.50
2022-08-23T14:03:54.627Z,32.40
2022-08-23T14:05:57.440Z,32.30
2022-08-23T14:08:00.199Z,32.30
2022-08-23T14:10:03.482Z,32.20
2022-08-23T14:12:09.784Z,32.20
2022-08-23T14:14:13.777Z,32.30
2022-08-23T14:16:34.976Z,32.30
2022-08-23T14:19:14.993Z,32.30
2022-08-23T14:21:03.558Z,32.40
2022-08-23T14:23:11.843Z,32.50
2022-08-23T14:25:15.931Z,32.40
2022-08-23T14:27:18.914Z,32.50
2022-08-23T14:29:22.556Z,32.60
2022-08-23T14:31:25.805Z,32.60
2022-08-23T14:33:28.541Z,32.60
2022-08-23T14:35:31.993Z,32.60
2022-08-23T14:39:59.495Z,32.70
2022-08-23T14:42:03.034Z,32.70
2022-08-23T14:44:06.419Z,32.80
2022-08-23T14:46:09.184Z,32.80
2022-08-23T14:48:11.989Z,32.80
2022-08-23T14:50:15.527Z,32.90
2022-08-23T14:52:18.435Z,32.90
2022-08-23T14:54:26.341Z,33.00
2022-08-23T14:56:29.052Z,32.90
2022-08-23T14:58:31.782Z,32.80
2022-08-23T15:00:35.798Z,32.80
2022-08-23T15:02:38.561Z,32.80
2022-08-23T15:04:41.704Z,32.80
2022-08-23T15:07:06.925Z,32.60
2022-08-23T15:09:07.775Z,32.70
2022-08-23T15:13:55.639Z,32.90
2022-08-23T15:15:59.620Z,32.90
2022-08-23T15:18:09.231Z,33.10
2022-08-23T15:20:15.439Z,33.20
2022-08-23T15:22:23.724Z,33.10
2022-08-23T15:24:29.061Z,33.10
2022-08-23T15:26:34.319Z,33.00
2022-08-23T15:28:37.187Z,32.90
2022-08-23T15:30:43.623Z,33.00
2022-08-23T15:32:52.473Z,33.10
2022-08-23T15:34:59.176Z,33.00
2022-08-23T15:37:02.279Z,32.90
2022-08-23T15:39:05.091Z,32.90
2022-08-23T15:41:07.895Z,32.60
2022-08-23T15:43:15.902Z,32.50
2022-08-23T15:45:19.331Z,32.30
2022-08-23T15:47:29.605Z,32.30
2022-08-23T15:49:36.183Z,32.30
2022-08-23T15:51:39.865Z,32.30
2022-08-23T15:53:44.150Z,32.20
2022-08-23T15:55:47.477Z,32.10
2022-08-23T15:57:53.439Z,32.10
2022-08-23T15:59:59.157Z,32.10
2022-08-23T16:02:01.988Z,32.10
2022-08-23T16:04:05.951Z,31.90
2022-08-23T16:06:10.791Z,32.00
2022-08-23T16:08:19.271Z,32.10
2022-08-23T16:10:22.529Z,32.20
2022-08-23T16:12:25.305Z,32.20
2022-08-23T16:14:28.182Z,32.20
2022-08-23T16:16:35.046Z,32.20
2022-08-23T16:18:39.161Z,32.00
2022-08-23T16:20:43.141Z,31.90
2022-08-23T16:22:45.907Z,31.90
2022-08-23T16:24:48.611Z,31.90
2022-08-23T16:26:52.542Z,31.90
2022-08-23T16:28:57.385Z,31.90
2022-08-23T16:31:00.239Z,31.90
2022-08-23T16:33:05.124Z,32.00
2022-08-23T16:35:08.822Z,32.10
2022-08-23T16:37:11.825Z,32.10
2022-08-23T16:39:16.107Z,32.40
2022-08-23T16:41:18.865Z,32.60
2022-08-23T16:43:22.199Z,32.80
2022-08-23T16:45:25.727Z,33.00
2022-08-23T16:47:29.753Z,33.10
2022-08-23T16:49:34.687Z,33.00
2022-08-23T16:51:37.741Z,33.00
2022-08-23T16:53:43.631Z,33.00
2022-08-23T16:55:48.555Z,33.00
2022-08-23T16:57:51.734Z,33.00
2022-08-23T16:59:55.572Z,32.90
2022-08-23T17:02:01.900Z,32.90
2022-08-23T17:04:13.619Z,32.70
2022-08-23T17:06:18.269Z,32.50
2022-08-23T17:08:21.127Z,32.40
2022-08-23T17:10:24.694Z,32.30
2022-08-23T17:12:27.894Z,32.20
2022-08-23T17:14:30.802Z,32.20
2022-08-23T17:16:34.083Z,32.20
2022-08-23T17:18:37.015Z,32.10
2022-08-23T17:20:41.150Z,31.90
2022-08-23T17:22:45.617Z,31.90
2022-08-23T17:24:53.299Z,31.70
2022-08-23T17:26:56.611Z,31.60
2022-08-23T17:28:59.389Z,31.70
2022-08-23T17:31:02.870Z,31.60
2022-08-23T17:33:06.060Z,31.50
2022-08-23T17:35:14.167Z,31.40
2022-08-23T17:37:20.375Z,31.40
2022-08-23T17:39:28.892Z,31.30
2022-08-23T17:41:31.829Z,31.20
2022-08-23T17:43:38.263Z,31.10
2022-08-23T17:45:43.467Z,31.00
2022-08-23T17:47:46.404Z,30.90
2022-08-23T17:49:49.776Z,30.90
2022-08-23T17:51:52.618Z,30.80
2022-08-23T17:53:55.393Z,30.70
2022-08-23T17:55:59.485Z,30.60
2022-08-23T17:58:03.868Z,30.60
2022-08-23T18:00:08.755Z,30.60
2022-08-23T18:02:11.733Z,30.60
2022-08-23T18:04:14.592Z,30.60
2022-08-23T18:06:18.509Z,30.50
2022-08-23T18:08:21.543Z,30.40
2022-08-23T18:10:25.367Z,30.20
2022-08-23T18:12:29.650Z,30.20
2022-08-23T18:14:32.717Z,30.00
2022-08-23T18:16:39.551Z,29.90
2022-08-23T18:18:43.370Z,29.70
2022-08-23T18:20:46.467Z,29.60
2022-08-23T18:22:52.356Z,29.50
2022-08-23T18:24:55.338Z,29.50
2022-08-23T18:27:21.341Z,29.40
2022-08-23T18:29:26.513Z,29.30
2022-08-23T18:31:29.316Z,29.30
2022-08-23T18:33:46.504Z,29.20
2022-08-23T18:35:51.409Z,29.20
2022-08-23T18:37:54.447Z,29.30
2022-08-23T18:39:57.402Z,29.30
2022-08-23T18:42:01.392Z,29.20
2022-08-23T18:44:05.710Z,29.10
2022-08-23T18:46:10.652Z,29.10
2022-08-23T18:48:13.593Z,29.10
2022-08-23T18:50:17.681Z,29.00
2022-08-23T18:52:20.603Z,29.00
2022-08-23T18:54:25.509Z,29.00
2022-08-23T18:56:28.516Z,28.90
2022-08-23T18:58:31.504Z,28.70
2022-08-23T19:00:34.352Z,28.50
2022-08-23T19:02:38.655Z,28.50
2022-08-23T19:04:41.881Z,28.40
2022-08-23T19:06:45.398Z,28.30
2022-08-23T19:08:48.692Z,28.20
2022-08-23T19:10:51.469Z,28.10
2022-08-23T19:12:55.098Z,28.00
2022-08-23T19:14:57.855Z,28.00
2022-08-23T19:17:03.565Z,27.90
2022-08-23T19:19:09.360Z,27.80
2022-08-23T19:21:14.326Z,27.70
2022-08-23T19:23:17.511Z,27.70
2022-08-23T19:25:20.328Z,27.60
2022-08-23T19:27:23.062Z,27.50
2022-08-23T19:29:26.061Z,27.40
2022-08-23T19:31:37.195Z,27.40
2022-08-23T19:33:41.571Z,27.40
2022-08-23T19:35:46.035Z,27.50
2022-08-23T19:37:49.452Z,27.40
2022-08-23T19:39:52.336Z,27.30
2022-08-23T19:41:55.210Z,27.20
2022-08-23T19:43:58.341Z,27.10
2022-08-23T19:46:01.073Z,27.00
2022-08-23T19:48:04.417Z,26.90
2022-08-23T19:50:09.479Z,26.80
2022-08-23T19:52:13.623Z,26.80
2022-08-23T19:54:17.305Z,26.80
2022-08-23T19:56:20.360Z,26.70
2022-08-23T19:58:23.125Z,26.70
2022-08-23T20:00:27.241Z,26.70
2022-08-23T20:02:30.085Z,26.70
2022-08-23T20:04:34.176Z,26.70
2022-08-23T20:06:37.031Z,26.60
2022-08-23T20:08:41.153Z,26.60
2022-08-23T20:10:44.474Z,26.60
2022-08-23T20:12:47.260Z,26.60
2022-08-23T20:14:49.979Z,26.50
2022-08-23T20:16:53.170Z,26.40
2022-08-23T20:18:56.424Z,26.40
2022-08-23T20:20:59.499Z,26.30
2022-08-23T20:23:19.856Z,26.20
2022-08-23T20:25:24.364Z,26.10
2022-08-23T20:27:31.105Z,26.10
2022-08-23T20:29:34.109Z,26.10
2022-08-23T20:31:39.525Z,26.10
2022-08-23T20:33:45.840Z,26.00
2022-08-23T20:35:49.281Z,25.90
2022-08-23T20:37:52.024Z,25.90
2022-08-23T20:39:54.906Z,25.80
2022-08-23T20:41:59.074Z,25.80
2022-08-23T20:44:02.423Z,25.70
2022-08-23T20:46:05.697Z,25.70
2022-08-23T20:48:08.667Z,25.70
2022-08-23T20:50:13.919Z,25.60
2022-08-23T20:52:18.266Z,25.50
2022-08-23T20:54:21.297Z,25.50
2022-08-23T20:56:25.025Z,25.40
2022-08-23T20:58:29.722Z,25.40
2022-08-23T21:00:32.912Z,25.40
2022-08-23T21:02:35.747Z,25.30
2022-08-23T21:04:40.196Z,25.40
2022-08-23T21:06:46.033Z,25.40
2022-08-23T21:08:53.514Z,25.30
2022-08-23T21:10:56.515Z,25.30
2022-08-23T21:12:59.281Z,25.30
2022-08-23T21:15:04.504Z,25.30
2022-08-23T21:17:09.589Z,25.20
2022-08-23T21:19:12.608Z,25.10
2022-08-23T21:21:19.714Z,24.90
2022-08-23T21:23:24.745Z,24.90
2022-08-23T21:25:27.433Z,24.90
2022-08-23T21:27:31.020Z,24.70
2022-08-23T21:29:33.765Z,24.70
2022-08-23T21:31:38.392Z,24.60
2022-08-23T21:33:42.686Z,24.50
2022-08-23T21:35:45.707Z,24.50
2022-08-23T21:37:48.439Z,24.50
2022-08-23T21:39:52.570Z,24.50
2022-08-23T21:41:56.342Z,24.40
2022-08-23T21:43:59.154Z,24.30
2022-08-23T21:46:02.007Z,24.30
2022-08-23T21:48:09.079Z,24.30
2022-08-23T21:50:12.111Z,24.30
2022-08-23T21:52:14.866Z,24.40
2022-08-23T21:54:18.600Z,24.40
2022-08-23T21:56:21.465Z,24.40
2022-08-23T21:58:24.254Z,24.40
2022-08-23T22:00:27.225Z,24.40
2022-08-23T22:02:29.962Z,24.30
2022-08-23T22:04:34.160Z,24.20
2022-08-23T22:06:38.648Z,24.30
2022-08-23T22:08:43.304Z,24.20
2022-08-23T22:10:57.368Z,24.20
2022-08-23T22:13:01.144Z,24.10
2022-08-23T22:15:04.873Z,24.10
2022-08-23T22:17:07.689Z,24.00
2022-08-23T22:19:11.019Z,24.00
2022-08-23T22:21:15.567Z,23.90
2022-08-23T22:23:18.445Z,24.00
2022-08-23T22:25:21.309Z,24.00
2022-08-23T22:27:24.173Z,23.90
2022-08-23T22:29:26.938Z,23.90
2022-08-23T22:31:29.819Z,23.90
2022-08-23T22:33:33.119Z,23.80
2022-08-23T22:35:36.403Z,23.80
2022-08-23T22:37:53.627Z,23.80
2022-08-23T22:40:04.571Z,23.80
2022-08-23T22:42:09.383Z,23.80
2022-08-23T22:44:13.774Z,23.80
2022-08-23T22:46:16.701Z,23.80
2022-08-23T22:48:19.739Z,23.80
2022-08-23T22:50:22.483Z,23.70
2022-08-23T22:52:25.682Z,23.70
2022-08-23T22:54:29.821Z,23.70
2022-08-23T22:56:37.675Z,23.70
2022-08-23T22:58:41.177Z,23.60
2022-08-23T23:00:44.292Z,23.60
2022-08-23T23:02:47.137Z,23.60
2022-08-23T23:04:49.963Z,23.60
2022-08-23T23:06:53.513Z,23.60
2022-08-23T23:08:57.199Z,23.60
2022-08-23T23:11:03.299Z,23.60
2022-08-23T23:13:06.071Z,23.60
2022-08-23T23:15:10.232Z,23.60
2022-08-23T23:17:13.042Z,23.60
2022-08-23T23:19:33.481Z,23.60
2022-08-23T23:21:38.947Z,23.50
2022-08-23T23:23:41.661Z,23.50
2022-08-23T23:25:45.815Z,23.40
2022-08-23T23:27:49.877Z,23.30
2022-08-23T23:29:52.720Z,23.20
2022-08-23T23:31:56.821Z,23.20
2022-08-23T23:33:59.683Z,23.10
2022-08-23T23:36:02.479Z,23.10
2022-08-23T23:38:07.712Z,23.20
2022-08-23T23:40:11.829Z,23.10
2022-08-23T23:42:14.594Z,23.10
2022-08-23T23:44:22.539Z,23.00
2022-08-23T23:46:34.769Z,23.10
2022-08-23T23:48:37.739Z,23.00
2022-08-23T23:50:45.586Z,23.00
2022-08-23T23:52:49.738Z,23.10
2022-08-23T23:54:52.501Z,23.00
2022-08-23T23:56:55.516Z,23.00
2022-08-23T23:58:59.271Z,22.90
